createdAt,value
2022-08-12T00:33:59.052Z,100.00
2022-08-12T00:36:50.094Z,100.00
2022-08-12T00:39:39.744Z,100.00
2022-08-12T00:46:09.260Z,100.00
2022-08-12T00:48:39.688Z,100.00
2022-08-12T00:51:10.488Z,100.00
2022-08-12T00:53:39.995Z,100.00
2022-08-12T00:56:10.959Z,100.00
2022-08-12T00:58:56.865Z,100.00
2022-08-12T01:01:27.154Z,100.00
2022-08-12T01:04:18.328Z,100.00
2022-08-12T01:23:42.349Z,100.00
2022-08-12T01:26:14.002Z,100.00
2022-08-12T01:28:47.004Z,100.00
2022-08-12T01:31:49.155Z,100.00
2022-08-12T01:35:05.808Z,100.00
2022-08-12T01:41:53.766Z,100.00
2022-08-12T01:44:25.780Z,100.00
2022-08-12T01:51:05.579Z,100.00
2022-08-12T01:53:52.956Z,100.00
2022-08-12T01:57:13.690Z,100.00
2022-08-12T01:59:52.119Z,100.00
2022-08-12T02:02:47.009Z,100.00
2022-08-12T02:05:44.777Z,100.00
2022-08-12T03:01:22.921Z,100.00
2022-08-12T07:20:55.007Z,100.00
2022-08-12T08:16:21.266Z,70.03
2022-08-12T08:22:58.010Z,74.96
2022-08-12T09:52:05.416Z,44.70
2022-08-12T09:54:50.307Z,43.37
2022-08-12T09:58:44.902Z,43.86
2022-08-12T10:34:38.250Z,41.66
2022-08-12T10:37:22.598Z,41.03
2022-08-12T10:39:59.234Z,41.87
2022-08-12T10:43:00.308Z,41.56
2022-08-12T10:45:30.556Z,40.01
2022-08-12T10:48:07.610Z,39.94
2022-08-12T10:51:01.044Z,40.73
2022-08-12T10:53:00.486Z,40.37
2022-08-12T10:55:32.200Z,38.32
2022-08-12T10:58:27.457Z,38.16
2022-08-12T11:00:54.899Z,37.79
2022-08-12T11:04:28.594Z,38.60
2022-08-12T11:07:02.815Z,38.27
2022-08-12T11:08:38.753Z,40.04
2022-08-12T11:14:00.003Z,41.15
2022-08-12T11:17:34.242Z,41.63
2022-08-12T12:26:06.499Z,49.19
2022-08-12T12:29:07.008Z,46.73
2022-08-12T12:30:54.631Z,47.89
2022-08-12T12:37:08.262Z,46.71
2022-08-12T12:39:55.102Z,46.29
2022-08-12T12:42:44.037Z,41.83
2022-08-12T12:44:50.834Z,42.56
2022-08-12T12:47:28.939Z,42.98
2022-08-12T12:49:58.227Z,39.93
2022-08-12T12:52:31.823Z,40.57
2022-08-12T12:58:31.245Z,41.03
2022-08-12T13:01:04.702Z,42.34
2022-08-12T13:03:48.774Z,42.54
2022-08-12T13:12:51.750Z,39.80
2022-08-12T13:22:20.717Z,40.68
2022-08-12T13:25:36.129Z,42.06
2022-08-12T13:28:05.853Z,42.90
2022-08-12T13:30:40.714Z,45.30
2022-08-12T13:57:46.851Z,46.75
2022-08-12T14:03:51.341Z,47.20
2022-08-12T14:06:30.242Z,46.36
2022-08-12T14:09:15.352Z,44.04
2022-08-12T14:12:01.237Z,42.31
2022-08-12T14:14:35.641Z,44.27
2022-08-12T14:17:05.557Z,46.29
2022-08-12T14:19:35.274Z,47.61
2022-08-12T14:22:05.457Z,49.92
2022-08-12T14:24:40.402Z,51.15
2022-08-12T14:27:10.401Z,49.75
2022-08-12T14:30:04.445Z,49.59
2022-08-12T15:14:18.960Z,37.43
2022-08-12T15:16:50.002Z,38.59
2022-08-12T15:20:30.805Z,38.80
2022-08-12T15:22:37.267Z,37.51
2022-08-12T15:24:55.571Z,36.32
2022-08-12T15:28:11.062Z,35.87
2022-08-12T15:30:16.027Z,35.61
2022-08-12T15:36:55.715Z,34.53
2022-08-12T15:39:34.459Z,33.17
2022-08-12T15:42:08.595Z,34.37
2022-08-12T15:44:42.903Z,35.55
2022-08-12T15:48:16.278Z,37.00
2022-08-12T15:52:27.290Z,37.37
2022-08-12T15:53:41.054Z,37.40
2022-08-12T15:56:15.337Z,36.59
2022-08-12T15:58:48.778Z,36.65
2022-08-12T16:01:22.455Z,36.56
2022-08-12T16:03:56.648Z,36.52
2022-08-12T16:06:50.997Z,37.17
2022-08-12T16:08:58.005Z,38.56
2022-08-12T16:11:32.853Z,39.88
2022-08-12T16:14:03.400Z,40.67
2022-08-12T16:16:33.914Z,41.45
2022-08-12T16:34:54.698Z,47.47
2022-08-12T16:37:21.639Z,48.62
2022-08-12T16:55:13.023Z,54.50
2022-08-12T16:56:54.562Z,52.72
2022-08-12T17:22:46.756Z,64.85
2022-08-12T17:25:23.446Z,67.81
2022-08-12T17:32:00.862Z,69.18
2022-08-12T17:34:17.208Z,69.79
2022-08-12T17:36:43.370Z,73.35
2022-08-12T17:39:13.092Z,75.69
2022-08-12T17:41:57.212Z,75.91
2022-08-12T17:44:20.925Z,75.02
2022-08-12T17:46:54.171Z,79.68
2022-08-12T17:50:01.920Z,80.35
2022-08-12T17:52:02.716Z,79.17
2022-08-12T19:00:56.596Z,92.57
2022-08-12T19:03:39.106Z,92.36
2022-08-12T19:06:02.525Z,93.20
2022-08-12T19:08:33.355Z,93.70
2022-08-12T19:11:27.080Z,95.43
2022-08-12T19:14:17.698Z,94.38
2022-08-12T19:16:52.809Z,96.44
2022-08-12T19:19:21.838Z,98.07
2022-08-12T19:21:57.027Z,97.51
2022-08-12T19:37:08.639Z,100.00
2022-08-12T19:42:31.509Z,100.00
2022-08-12T19:45:05.650Z,100.00
2022-08-12T19:47:38.548Z,100.00
2022-08-12T19:50:20.012Z,100.00
2022-08-12T19:52:51.051Z,100.00
2022-08-12T19:55:21.903Z,100.00
2022-08-12T19:58:01.358Z,100.00
2022-08-12T20:00:26.564Z,100.00
2022-08-12T20:02:57.016Z,100.00
2022-08-12T20:06:04.596Z,100.00
2022-08-12T20:08:01.074Z,100.00
2022-08-12T20:10:36.350Z,100.00
2022-08-12T20:16:01.148Z,100.00
2022-08-12T20:18:53.596Z,100.00
2022-08-12T20:21:14.863Z,100.00
2022-08-12T20:23:59.643Z,100.00
2022-08-12T20:44:43.434Z,100.00
2022-08-12T20:47:18.658Z,100.00
2022-08-12T20:53:14.277Z,100.00
2022-08-12T21:06:33.572Z,100.00
2022-08-12T21:09:06.928Z,100.00
2022-08-12T21:11:38.008Z,100.00
2022-08-12T21:14:10.575Z,100.00
2022-08-12T21:16:42.165Z,100.00
2022-08-12T21:19:22.647Z,100.00
2022-08-12T21:21:51.879Z,100.00
2022-08-12T21:24:31.701Z,100.00
2022-08-12T21:26:56.786Z,100.00
2022-08-12T21:29:25.583Z,100.00
2022-08-12T21:32:39.410Z,100.00
2022-08-12T21:34:29.678Z,100.00
2022-08-12T21:36:59.463Z,100.00
2022-08-12T21:40:37.702Z,100.00
2022-08-12T21:59:07.223Z,100.00
2022-08-12T22:05:16.843Z,100.00
2022-08-12T22:07:55.462Z,100.00
2022-08-12T22:11:24.563Z,100.00
2022-08-12T22:16:31.103Z,100.00
2022-08-12T22:19:28.308Z,100.00
2022-08-12T22:22:01.250Z,100.00
2022-08-12T22:24:58.565Z,100.00
2022-08-12T22:28:04.946Z,100.00
2022-08-12T23:06:55.912Z,100.00
2022-08-12T23:09:48.988Z,100.00
2022-08-12T23:30:19.137Z,100.00
2022-08-12T23:42:21.302Z,100.00
